createdAt,value
2018-10-02T00:00:57.896Z,19.10
2018-10-02T00:03:27.100Z,19.10
2018-10-02T00:05:56.335Z,19.00
2018-10-02T00:08:25.537Z,19.00
2018-10-02T00:11:00.640Z,19.00
2018-10-02T00:13:34.964Z,19.00
2018-10-02T00:16:04.217Z,19.00
2018-10-02T00:18:33.419Z,19.00
2018-10-02T00:21:02.689Z,19.00
2018-10-02T00:23:31.913Z,19.00
2018-10-02T00:26:01.111Z,19.00
2018-10-02T00:28:30.461Z,19.00
2018-10-02T00:30:59.673Z,19.00
2018-10-02T00:33:28.915Z,19.00
2018-10-02T00:35:58.117Z,19.00
2018-10-02T00:38:27.311Z,19.00
2018-10-02T00:40:56.513Z,19.00
2018-10-02T00:43:25.732Z,19.00
2018-10-02T00:45:54.931Z,18.90
2018-10-02T00:48:24.128Z,19.00
2018-10-02T00:50:53.375Z,18.90
2018-10-02T00:53:22.772Z,18.90
2018-10-02T00:55:52.079Z,19.00
2018-10-02T00:58:21.302Z,18.90
2018-10-02T01:00:50.546Z,18.90
2018-10-02T01:03:19.903Z,18.90
2018-10-02T01:05:49.113Z,18.90
2018-10-02T01:08:18.338Z,18.90
2018-10-02T01:10:47.619Z,18.90
2018-10-02T01:13:16.896Z,18.90
2018-10-02T01:15:46.094Z,18.90
2018-10-02T01:18:15.292Z,18.90
2018-10-02T01:20:44.496Z,18.90
2018-10-02T01:23:13.797Z,18.90
2018-10-02T01:25:43.053Z,18.90
2018-10-02T01:28:12.557Z,18.90
2018-10-02T01:30:48.246Z,18.90
2018-10-02T01:33:17.521Z,18.90
2018-10-02T01:35:46.753Z,18.90
2018-10-02T01:38:15.971Z,18.90
2018-10-02T01:40:45.216Z,18.80
2018-10-02T01:43:14.516Z,18.90
2018-10-02T01:45:43.750Z,18.90
2018-10-02T01:48:12.969Z,18.80
2018-10-02T01:50:42.168Z,18.80
2018-10-02T01:53:11.438Z,18.80
2018-10-02T01:55:40.645Z,18.80
2018-10-02T01:58:09.841Z,18.80
2018-10-02T02:00:39.924Z,18.80
2018-10-02T02:03:09.237Z,18.80
2018-10-02T02:05:38.456Z,18.80
2018-10-02T02:08:07.933Z,18.80
2018-10-02T02:10:37.218Z,18.80
2018-10-02T02:13:06.532Z,18.80
2018-10-02T02:15:35.757Z,18.80
2018-10-02T02:18:05.985Z,18.80
2018-10-02T02:20:35.184Z,18.80
2018-10-02T02:23:04.412Z,18.80
2018-10-02T02:25:33.658Z,18.80
2018-10-02T02:28:02.950Z,18.80
2018-10-02T02:30:32.178Z,18.80
2018-10-02T02:33:01.550Z,18.80
2018-10-02T02:35:30.733Z,18.80
2018-10-02T02:37:59.946Z,18.80
2018-10-02T02:40:29.184Z,18.70
2018-10-02T02:42:58.410Z,18.80
2018-10-02T02:45:27.612Z,18.70
2018-10-02T02:48:01.938Z,18.80
2018-10-02T02:50:36.489Z,18.70
2018-10-02T02:53:10.118Z,18.70
2018-10-02T02:55:39.342Z,18.70
2018-10-02T02:58:08.610Z,18.80
2018-10-02T03:00:37.839Z,18.70
2018-10-02T03:03:07.492Z,18.70
2018-10-02T03:05:36.721Z,18.70
2018-10-02T03:08:05.991Z,18.70
2018-10-02T03:10:35.217Z,18.70
2018-10-02T03:13:04.509Z,18.70
2018-10-02T03:15:33.712Z,18.70
2018-10-02T03:18:02.920Z,18.70
2018-10-02T03:20:32.140Z,18.70
2018-10-02T03:23:01.381Z,18.70
2018-10-02T03:25:30.602Z,18.70
2018-10-02T03:27:59.812Z,18.70
2018-10-02T03:30:29.102Z,18.70
2018-10-02T03:32:58.352Z,18.60
2018-10-02T03:35:27.603Z,18.60
2018-10-02T03:37:56.862Z,18.70
2018-10-02T03:40:26.041Z,18.60
2018-10-02T03:42:55.364Z,18.70
2018-10-02T03:45:24.573Z,18.60
2018-10-02T03:47:53.773Z,18.70
2018-10-02T03:50:22.979Z,18.60
2018-10-02T03:52:52.314Z,18.60
2018-10-02T03:55:21.500Z,18.60
2018-10-02T03:57:50.703Z,18.60
2018-10-02T04:00:19.897Z,18.60
2018-10-02T04:02:49.269Z,18.60
2018-10-02T04:05:18.510Z,18.60
2018-10-02T04:07:47.726Z,18.50
2018-10-02T04:10:16.922Z,18.60
2018-10-02T04:12:46.133Z,18.60
2018-10-02T04:15:15.460Z,18.60
2018-10-02T04:17:44.630Z,18.60
2018-10-02T04:20:13.825Z,18.60
2018-10-02T04:22:43.159Z,18.60
2018-10-02T04:25:12.403Z,18.60
2018-10-02T04:27:41.756Z,18.60
2018-10-02T04:30:11.123Z,18.60
2018-10-02T04:32:40.555Z,18.70
2018-10-02T04:35:09.796Z,18.70
2018-10-02T04:37:39.400Z,18.70
2018-10-02T04:40:08.610Z,18.70
2018-10-02T04:42:37.964Z,18.80
2018-10-02T04:45:07.541Z,18.80
2018-10-02T04:47:36.781Z,18.80
2018-10-02T04:50:06.012Z,18.70
2018-10-02T04:52:35.302Z,18.60
2018-10-02T04:55:04.730Z,18.60
2018-10-02T04:57:34.006Z,18.60
2018-10-02T05:00:03.281Z,18.60
2018-10-02T05:02:33.572Z,18.50
2018-10-02T05:05:02.859Z,18.60
2018-10-02T05:07:32.178Z,18.60
2018-10-02T05:10:01.545Z,18.50
2018-10-02T05:12:30.960Z,18.60
2018-10-02T05:15:00.213Z,18.60
2018-10-02T05:17:29.484Z,18.50
2018-10-02T05:19:58.856Z,18.50
2018-10-02T05:22:28.172Z,18.50
2018-10-02T05:24:57.436Z,18.50
2018-10-02T05:27:26.755Z,18.50
2018-10-02T05:29:56.782Z,18.50
2018-10-02T05:32:26.054Z,18.50
2018-10-02T05:34:55.433Z,18.50
2018-10-02T05:37:24.735Z,18.50
2018-10-02T05:39:54.021Z,18.50
2018-10-02T05:42:23.496Z,18.50
2018-10-02T05:44:52.769Z,18.40
2018-10-02T05:47:22.129Z,18.40
2018-10-02T05:49:51.641Z,18.50
2018-10-02T05:52:21.229Z,18.40
2018-10-02T05:54:50.537Z,18.50
2018-10-02T05:57:20.204Z,18.50
2018-10-02T05:59:49.509Z,18.40
2018-10-02T06:02:21.174Z,18.50
2018-10-02T06:04:50.467Z,18.40
2018-10-02T06:07:19.685Z,18.40
2018-10-02T06:09:48.969Z,18.40
2018-10-02T06:12:18.687Z,18.40
2018-10-02T06:14:47.986Z,18.40
2018-10-02T06:17:18.056Z,18.40
2018-10-02T06:19:47.369Z,18.40
2018-10-02T06:22:16.754Z,18.40
2018-10-02T06:24:46.166Z,18.40
2018-10-02T06:27:15.513Z,18.40
2018-10-02T06:29:44.816Z,18.40
2018-10-02T06:32:14.321Z,18.40
2018-10-02T06:34:43.608Z,18.40
2018-10-02T06:37:13.037Z,18.40
2018-10-02T06:39:42.442Z,18.40
2018-10-02T06:42:11.828Z,18.40
2018-10-02T06:44:41.205Z,18.40
2018-10-02T06:47:10.363Z,18.30
2018-10-02T06:49:39.687Z,18.30
2018-10-02T06:52:09.209Z,18.40
2018-10-02T06:54:38.296Z,18.40
2018-10-02T06:57:07.735Z,18.30
2018-10-02T06:59:36.905Z,18.30
2018-10-02T07:02:06.223Z,18.30
2018-10-02T07:04:35.477Z,18.30
2018-10-02T07:07:04.728Z,18.40
2018-10-02T07:09:34.005Z,18.30
2018-10-02T07:12:03.336Z,18.30
2018-10-02T07:14:32.709Z,18.40
2018-10-02T07:17:02.034Z,18.40
2018-10-02T07:19:31.304Z,18.30
2018-10-02T07:22:00.763Z,18.30
2018-10-02T07:24:30.034Z,18.40
2018-10-02T07:26:59.463Z,18.40
2018-10-02T07:29:28.642Z,18.40
2018-10-02T07:31:58.014Z,18.50
2018-10-02T07:34:27.311Z,18.60
2018-10-02T07:36:56.566Z,18.80
2018-10-02T07:39:25.893Z,18.90
2018-10-02T07:41:55.299Z,19.00
2018-10-02T07:44:24.620Z,19.60
2018-10-02T07:46:53.832Z,19.60
2018-10-02T07:49:23.140Z,19.20
2018-10-02T07:51:52.452Z,18.90
2018-10-02T07:54:21.731Z,18.70
2018-10-02T07:56:51.042Z,18.60
2018-10-02T07:59:20.280Z,18.60
2018-10-02T08:01:49.580Z,18.60
2018-10-02T08:04:18.854Z,18.60
2018-10-02T08:06:48.115Z,18.60
2018-10-02T08:09:17.325Z,18.80
2018-10-02T08:11:46.663Z,18.90
2018-10-02T08:14:15.952Z,18.90
2018-10-02T08:16:45.217Z,19.00
2018-10-02T08:19:14.565Z,19.00
2018-10-02T08:21:43.936Z,18.90
2018-10-02T08:24:13.185Z,18.90
2018-10-02T08:26:42.568Z,18.90
2018-10-02T08:29:11.739Z,18.90
2018-10-02T08:31:41.065Z,18.90
2018-10-02T08:34:10.356Z,18.80
2018-10-02T08:36:39.822Z,18.80
2018-10-02T08:39:10.478Z,18.80
2018-10-02T08:41:40.190Z,18.80
2018-10-02T08:44:11.779Z,18.80
2018-10-02T08:46:41.117Z,18.80
2018-10-02T08:49:10.461Z,18.80
2018-10-02T08:51:39.982Z,18.80
2018-10-02T08:54:09.344Z,18.80
2018-10-02T08:56:38.624Z,18.80
2018-10-02T08:59:08.837Z,18.80
2018-10-02T09:01:38.127Z,18.80
2018-10-02T09:04:07.359Z,18.80
2018-10-02T09:06:36.686Z,18.80
2018-10-02T09:09:09.458Z,18.80
2018-10-02T09:11:38.783Z,18.80
2018-10-02T09:14:08.093Z,18.90
2018-10-02T09:16:37.636Z,18.90
2018-10-02T09:19:07.698Z,18.90
2018-10-02T09:21:37.128Z,18.90
2018-10-02T09:24:06.668Z,18.90
2018-10-02T09:26:35.959Z,18.90
2018-10-02T09:29:05.197Z,18.90
2018-10-02T09:31:39.812Z,18.90
2018-10-02T09:34:14.326Z,19.00
2018-10-02T09:36:48.578Z,19.00
2018-10-02T09:39:22.856Z,18.90
2018-10-02T09:41:57.202Z,19.00
2018-10-02T09:44:26.514Z,19.00
2018-10-02T09:46:55.759Z,19.00
2018-10-02T09:49:25.009Z,19.00
2018-10-02T09:51:54.477Z,19.00
2018-10-02T09:54:23.758Z,19.00
2018-10-02T09:56:53.131Z,19.00
2018-10-02T09:59:22.600Z,19.00
2018-10-02T10:01:57.297Z,19.00
2018-10-02T10:04:26.736Z,19.10
2018-10-02T10:06:55.949Z,19.10
2018-10-02T10:09:25.215Z,19.10
2018-10-02T10:11:54.536Z,19.10
2018-10-02T10:14:23.804Z,19.10
2018-10-02T10:16:53.053Z,19.10
2018-10-02T10:19:22.502Z,19.10
2018-10-02T10:21:51.833Z,19.20
2018-10-02T10:24:21.145Z,19.10
2018-10-02T10:26:50.465Z,19.10
2018-10-02T10:29:19.733Z,19.10
2018-10-02T10:31:49.143Z,19.10
2018-10-02T10:34:18.540Z,19.10
2018-10-02T10:36:47.814Z,19.20
2018-10-02T10:39:17.168Z,19.20
2018-10-02T10:41:46.598Z,19.20
2018-10-02T10:44:15.925Z,19.20
2018-10-02T10:46:45.236Z,19.20
2018-10-02T10:49:14.448Z,19.20
2018-10-02T10:51:43.817Z,19.20
2018-10-02T10:54:13.044Z,19.20
2018-10-02T10:56:42.370Z,19.30
2018-10-02T10:59:11.839Z,19.30
2018-10-02T11:01:41.455Z,19.30
2018-10-02T11:04:10.725Z,19.30
2018-10-02T11:06:39.956Z,19.20
2018-10-02T11:09:10.745Z,19.30
2018-10-02T11:11:40.092Z,19.30
2018-10-02T11:14:09.399Z,19.30
2018-10-02T11:16:38.814Z,19.30
2018-10-02T11:19:08.053Z,19.30
2018-10-02T11:21:37.471Z,19.30
2018-10-02T11:24:06.830Z,19.30
2018-10-02T11:26:36.051Z,19.30
2018-10-02T11:29:05.303Z,19.30
2018-10-02T11:31:34.655Z,19.30
2018-10-02T11:34:03.986Z,19.30
2018-10-02T11:36:33.717Z,19.30
2018-10-02T11:39:03.066Z,19.30
2018-10-02T11:41:32.460Z,19.30
2018-10-02T11:44:01.827Z,19.30
2018-10-02T11:46:31.012Z,19.30
2018-10-02T11:49:00.297Z,19.30
2018-10-02T11:51:29.596Z,19.30
2018-10-02T11:53:58.926Z,19.30
2018-10-02T11:56:28.213Z,19.30
2018-10-02T11:58:57.573Z,19.30
2018-10-02T12:01:26.948Z,19.30
2018-10-02T12:03:56.248Z,19.30
2018-10-02T12:06:25.522Z,19.30
2018-10-02T12:08:55.116Z,19.30
2018-10-02T12:11:24.401Z,19.30
2018-10-02T12:13:53.669Z,19.30
2018-10-02T12:16:22.929Z,19.30
2018-10-02T12:18:52.237Z,19.30
2018-10-02T12:21:21.628Z,19.30
2018-10-02T12:23:50.924Z,19.30
2018-10-02T12:26:20.239Z,19.30
2018-10-02T12:28:49.531Z,19.30
2018-10-02T12:31:18.945Z,19.30
2018-10-02T12:33:48.113Z,19.30
2018-10-02T12:36:17.352Z,19.30
2018-10-02T12:38:46.560Z,19.30
2018-10-02T12:41:15.821Z,19.30
2018-10-02T12:43:45.050Z,19.30
2018-10-02T12:46:14.427Z,19.30
2018-10-02T12:48:43.647Z,19.30
2018-10-02T12:51:13.009Z,19.30
2018-10-02T12:53:42.409Z,19.30
2018-10-02T12:56:11.676Z,19.30
2018-10-02T12:58:41.033Z,19.30
2018-10-02T13:01:10.420Z,19.30
2018-10-02T13:03:40.146Z,19.30
2018-10-02T13:06:09.397Z,19.30
2018-10-02T13:08:38.616Z,19.30
2018-10-02T13:11:07.813Z,19.30
2018-10-02T13:13:37.729Z,19.30
2018-10-02T13:16:06.951Z,19.30
2018-10-02T13:18:36.200Z,19.30
2018-10-02T13:21:05.529Z,19.30
2018-10-02T13:23:34.955Z,19.30
2018-10-02T13:26:05.260Z,19.30
2018-10-02T13:28:34.561Z,19.30
2018-10-02T13:31:03.763Z,19.30
2018-10-02T13:33:33.036Z,19.30
2018-10-02T13:36:02.559Z,19.30
2018-10-02T13:38:31.789Z,19.30
2018-10-02T13:41:01.040Z,19.20
2018-10-02T13:43:30.284Z,19.20
2018-10-02T13:45:59.573Z,19.20
2018-10-02T13:48:28.824Z,19.20
2018-10-02T13:50:58.096Z,19.20
2018-10-02T13:53:27.465Z,19.20
2018-10-02T13:55:56.699Z,19.20
2018-10-02T13:58:26.009Z,19.20
2018-10-02T14:00:55.266Z,19.20
2018-10-02T14:03:24.517Z,19.20
2018-10-02T14:05:53.785Z,19.20
2018-10-02T14:08:23.332Z,19.20
2018-10-02T14:10:52.788Z,19.20
2018-10-02T14:13:22.049Z,19.20
2018-10-02T14:15:51.305Z,19.20
2018-10-02T14:18:20.577Z,19.20
2018-10-02T14:20:49.805Z,19.20
2018-10-02T14:23:19.245Z,19.20
2018-10-02T14:25:48.475Z,19.20
2018-10-02T14:28:17.792Z,19.10
2018-10-02T14:30:47.006Z,19.10
2018-10-02T14:33:16.430Z,19.10
2018-10-02T14:35:45.692Z,19.10
2018-10-02T14:38:14.965Z,19.10
2018-10-02T14:40:44.303Z,19.10
2018-10-02T14:43:13.720Z,19.10
2018-10-02T14:45:42.945Z,19.10
2018-10-02T14:48:12.169Z,19.10
2018-10-02T14:50:41.800Z,19.10
2018-10-02T14:53:11.023Z,19.10
2018-10-02T14:55:40.247Z,19.10
2018-10-02T14:58:09.549Z,19.10
2018-10-02T15:00:38.801Z,19.10
2018-10-02T15:03:08.046Z,19.10
2018-10-02T15:05:37.286Z,19.10
2018-10-02T15:08:06.505Z,19.10
2018-10-02T15:10:35.706Z,19.10
2018-10-02T15:13:05.226Z,19.10
2018-10-02T15:15:35.237Z,19.10
2018-10-02T15:18:04.586Z,19.00
2018-10-02T15:20:33.776Z,19.10
2018-10-02T15:23:03.496Z,19.10
2018-10-02T15:25:32.708Z,19.10
2018-10-02T15:28:01.974Z,19.10
2018-10-02T15:30:31.278Z,19.10
2018-10-02T15:33:00.598Z,19.10
2018-10-02T15:35:29.903Z,19.10
2018-10-02T15:37:59.184Z,19.10
2018-10-02T15:40:28.426Z,19.10
2018-10-02T15:42:57.710Z,19.10
2018-10-02T15:45:27.025Z,19.10
2018-10-02T15:47:56.272Z,19.10
2018-10-02T15:50:25.480Z,19.10
2018-10-02T15:52:54.777Z,19.10
2018-10-02T15:55:24.038Z,19.10
2018-10-02T15:57:53.273Z,19.10
2018-10-02T16:00:22.526Z,19.10
2018-10-02T16:02:51.810Z,19.10
2018-10-02T16:05:21.121Z,19.10
2018-10-02T16:07:50.567Z,19.10
2018-10-02T16:10:19.824Z,19.00
2018-10-02T16:12:49.076Z,19.00
2018-10-02T16:15:18.273Z,19.10
2018-10-02T16:17:47.605Z,19.10
2018-10-02T16:20:16.826Z,19.10
2018-10-02T16:22:46.073Z,19.10
2018-10-02T16:25:15.300Z,19.00
2018-10-02T16:27:44.582Z,19.00
2018-10-02T16:30:13.862Z,19.00
2018-10-02T16:32:43.163Z,19.00
2018-10-02T16:35:12.426Z,19.00
2018-10-02T16:37:41.675Z,19.00
2018-10-02T16:40:10.864Z,19.00
2018-10-02T16:42:40.205Z,19.00
2018-10-02T16:45:09.474Z,19.00
2018-10-02T16:47:38.743Z,19.00
2018-10-02T16:50:08.097Z,19.00
2018-10-02T16:52:37.352Z,19.00
2018-10-02T16:55:06.960Z,19.10
2018-10-02T16:57:36.210Z,19.00
2018-10-02T17:00:06.380Z,19.00
2018-10-02T17:02:35.728Z,19.10
2018-10-02T17:05:04.976Z,19.10
2018-10-02T17:07:34.205Z,19.00
2018-10-02T17:10:03.468Z,19.10
2018-10-02T17:12:32.807Z,19.10
2018-10-02T17:15:02.070Z,19.00
2018-10-02T17:17:31.324Z,19.10
2018-10-02T17:20:00.567Z,19.20
2018-10-02T17:22:29.987Z,19.20
2018-10-02T17:24:59.238Z,19.30
2018-10-02T17:27:28.524Z,19.20
2018-10-02T17:29:57.905Z,19.20
2018-10-02T17:32:27.330Z,19.20
2018-10-02T17:34:56.589Z,19.20
2018-10-02T17:37:25.831Z,19.30
2018-10-02T17:39:55.153Z,19.30
2018-10-02T17:42:24.437Z,19.30
2018-10-02T17:44:53.675Z,19.30
2018-10-02T17:47:23.000Z,19.30
2018-10-02T17:49:52.270Z,19.30
2018-10-02T17:52:21.642Z,19.30
2018-10-02T17:54:51.013Z,19.30
2018-10-02T17:57:20.263Z,19.40
2018-10-02T17:59:49.592Z,19.30
2018-10-02T18:02:18.967Z,19.30
2018-10-02T18:04:48.924Z,19.20
2018-10-02T18:07:18.189Z,19.20
2018-10-02T18:09:47.472Z,19.20
2018-10-02T18:12:16.779Z,19.20
2018-10-02T18:14:46.010Z,19.20
2018-10-02T18:17:15.280Z,19.20
2018-10-02T18:19:44.555Z,19.20
2018-10-02T18:22:13.856Z,19.20
2018-10-02T18:24:43.097Z,19.10
2018-10-02T18:27:12.603Z,19.10
2018-10-02T18:29:41.833Z,19.10
2018-10-02T18:32:11.124Z,19.10
2018-10-02T18:34:40.482Z,19.10
2018-10-02T18:37:10.036Z,19.10
2018-10-02T18:39:39.289Z,19.10
2018-10-02T18:42:08.660Z,19.10
2018-10-02T18:44:37.923Z,19.10
2018-10-02T18:47:07.233Z,19.10
2018-10-02T18:49:36.469Z,19.10
2018-10-02T18:52:05.792Z,19.10
2018-10-02T18:54:35.002Z,19.10
2018-10-02T18:57:04.363Z,19.10
2018-10-02T18:59:34.109Z,19.00
2018-10-02T19:02:03.413Z,19.00
2018-10-02T19:04:32.677Z,19.00
2018-10-02T19:07:01.920Z,19.00
2018-10-02T19:09:31.207Z,19.00
2018-10-02T19:12:05.581Z,19.00
2018-10-02T19:14:34.801Z,19.00
2018-10-02T19:17:04.106Z,19.00
2018-10-02T19:19:38.442Z,19.00
2018-10-02T19:22:07.787Z,19.00
2018-10-02T19:24:37.005Z,19.00
2018-10-02T19:27:06.214Z,19.00
2018-10-02T19:29:35.536Z,19.00
2018-10-02T19:32:11.769Z,19.00
2018-10-02T19:34:41.056Z,19.00
2018-10-02T19:37:15.361Z,18.90
2018-10-02T19:39:45.172Z,19.00
2018-10-02T19:42:14.919Z,19.00
2018-10-02T19:44:44.116Z,19.00
2018-10-02T19:47:13.346Z,18.90
2018-10-02T19:49:42.550Z,18.90
2018-10-02T19:52:13.149Z,18.90
2018-10-02T19:54:42.650Z,18.90
2018-10-02T19:57:15.535Z,18.90
2018-10-02T19:59:45.209Z,18.90
2018-10-02T20:02:14.596Z,18.90
2018-10-02T20:04:43.769Z,18.90
2018-10-02T20:07:13.022Z,18.90
2018-10-02T20:09:43.152Z,18.90
2018-10-02T20:12:12.841Z,18.90
2018-10-02T20:14:42.046Z,18.80
2018-10-02T20:17:11.238Z,18.90
2018-10-02T20:19:40.433Z,18.80
2018-10-02T20:22:10.688Z,18.90
2018-10-02T20:24:39.889Z,18.90
2018-10-02T20:27:09.114Z,18.90
2018-10-02T20:29:38.312Z,18.80
2018-10-02T20:32:07.684Z,18.80
2018-10-02T20:34:36.847Z,18.90
2018-10-02T20:37:06.106Z,18.80
2018-10-02T20:39:35.374Z,18.80
2018-10-02T20:42:04.612Z,18.80
2018-10-02T20:44:33.849Z,18.80
2018-10-02T20:47:03.070Z,18.80
2018-10-02T20:49:32.306Z,18.80
2018-10-02T20:52:01.546Z,18.80
2018-10-02T20:54:30.793Z,18.80
2018-10-02T20:56:59.964Z,18.80
2018-10-02T20:59:29.193Z,18.80
2018-10-02T21:01:58.405Z,18.80
2018-10-02T21:04:27.602Z,18.80
2018-10-02T21:06:56.817Z,18.80
2018-10-02T21:09:26.034Z,18.70
2018-10-02T21:11:55.301Z,18.70
2018-10-02T21:14:24.521Z,18.70
2018-10-02T21:16:53.764Z,18.70
2018-10-02T21:19:23.033Z,18.70
2018-10-02T21:21:52.405Z,18.70
2018-10-02T21:24:21.564Z,18.70
2018-10-02T21:26:50.755Z,18.70
2018-10-02T21:29:19.947Z,18.70
2018-10-02T21:31:49.221Z,18.70
2018-10-02T21:34:18.548Z,18.70
2018-10-02T21:36:47.776Z,18.70
2018-10-02T21:39:16.974Z,18.70
2018-10-02T21:41:46.174Z,18.70
2018-10-02T21:44:15.379Z,18.70
2018-10-02T21:46:44.583Z,18.70
2018-10-02T21:49:14.226Z,18.70
2018-10-02T21:51:43.486Z,18.70
2018-10-02T21:54:12.689Z,18.70
2018-10-02T21:56:41.876Z,18.70
2018-10-02T21:59:11.176Z,18.70
2018-10-02T22:01:40.381Z,18.70
2018-10-02T22:04:09.618Z,18.70
2018-10-02T22:06:38.872Z,18.70
2018-10-02T22:09:09.587Z,18.70
2018-10-02T22:11:38.851Z,18.70
2018-10-02T22:14:08.110Z,18.70
2018-10-02T22:16:37.400Z,18.60
2018-10-02T22:19:06.600Z,18.70
2018-10-02T22:21:35.833Z,18.60
2018-10-02T22:24:05.100Z,18.60
2018-10-02T22:26:34.298Z,18.60
2018-10-02T22:29:03.541Z,18.60
2018-10-02T22:31:32.806Z,18.60
2018-10-02T22:34:02.007Z,18.60
2018-10-02T22:36:31.240Z,18.60
2018-10-02T22:39:00.447Z,18.60
2018-10-02T22:41:29.701Z,18.60
2018-10-02T22:43:58.886Z,18.60
2018-10-02T22:46:28.093Z,18.60
2018-10-02T22:48:57.283Z,18.60
2018-10-02T22:51:27.074Z,18.60
2018-10-02T22:53:56.301Z,18.60
2018-10-02T22:56:25.494Z,18.60
2018-10-02T22:58:54.977Z,18.60
2018-10-02T23:01:24.201Z,18.60
2018-10-02T23:03:53.398Z,18.60
2018-10-02T23:06:22.592Z,18.60
2018-10-02T23:08:52.045Z,18.60
2018-10-02T23:11:21.341Z,18.60
2018-10-02T23:14:20.260Z,18.60
2018-10-02T23:16:49.460Z,18.60
2018-10-02T23:19:18.672Z,18.60
2018-10-02T23:21:47.904Z,18.60
2018-10-02T23:24:17.437Z,18.50
2018-10-02T23:26:46.659Z,18.50
2018-10-02T23:29:15.856Z,18.50
2018-10-02T23:31:45.132Z,18.60
2018-10-02T23:34:14.337Z,18.50
2018-10-02T23:36:43.640Z,18.50
2018-10-02T23:39:12.871Z,18.50
2018-10-02T23:41:42.085Z,18.50
2018-10-02T23:44:11.260Z,18.50
2018-10-02T23:46:40.446Z,18.50
2018-10-02T23:49:09.624Z,18.50
2018-10-02T23:51:38.896Z,18.50
2018-10-02T23:54:08.462Z,18.50
2018-10-02T23:56:37.790Z,18.50
2018-10-02T23:59:07.198Z,18.50
